Julian, Pennsylvania
Current Conditions -  °F | °C
As of 3:35 AM on Monday 24 Nov 2014 (Local Time) from KUNV Reporting Station
Overcast Overcast  
Wind Chill: 50°   Ceiling: 1200
Heat Index: 50°   Visibility: 10mi
Dew Point: 49°   Wind: 7mph
Humidity: 94%   Direction: 220°SW
Pressure: 29.56"   Gusts: NA
Location:  40.86°N, 77.94°W
Report Text: KUNV 240835Z AUTO 22006KT 10SM OVC012 10/09 A2956 RMK AO2 T01020093
Loading
Personal Weather Stations






























Interactive Weather Map New forecast layout! Learn more

10-Day Weather Forecast

Advertisements
Track Severe Weather on mobile